Time;durP1;ratioP1;P1;durP2;ratioP2;P2;SDS_P1;SDS_P2;PMS_P1;PMS_P2;Temp;Humidity;BMP_temperature;BMP_pressure;BME280_temperature;BME280_humidity;BME280_pressure;Samples;Min_cycle;Max_cycle;Signal;HPM_P1;HPM_P2
2023/09/13 00:00:25;;;;;;;18.45;11.18;;;19.20;99.90;;;;;;7368459;19;20018;-61
2023/09/13 00:02:51;;;;;;;19.50;11.23;;;19.20;99.90;;;;;;7369425;19;20042;-59
2023/09/13 00:05:18;;;;;;;16.75;11.38;;;19.20;99.90;;;;;;7368041;19;20481;-60
2023/09/13 00:08:04;;;;;;;17.92;10.23;;;19.20;99.90;;;;;;7367478;19;20018;-59
2023/09/13 00:11:09;;;;;;;17.48;9.05;;;19.20;99.90;;;;;;7365679;19;20042;-59
2023/09/13 00:13:35;;;;;;;18.73;9.48;;;19.10;99.90;;;;;;7372918;19;20082;-59
2023/09/13 00:16:03;;;;;;;18.30;9.45;;;19.20;99.90;;;;;;7366210;19;21113;-60
2023/09/13 00:18:32;;;;;;;16.05;7.97;;;19.20;99.90;;;;;;7371302;19;20097;-60
2023/09/13 00:20:59;;;;;;;14.05;8.07;;;19.20;99.90;;;;;;7373636;19;20477;-60
2023/09/13 00:23:28;;;;;;;16.88;9.65;;;19.10;99.90;;;;;;7370240;19;20018;-65
2023/09/13 00:25:54;;;;;;;15.77;7.55;;;19.10;99.90;;;;;;7366927;19;20026;-66
2023/09/13 00:28:20;;;;;;;19.77;8.73;;;19.10;99.90;;;;;;7364801;19;20718;-66
2023/09/13 00:30:47;;;;;;;15.85;6.22;;;19.10;99.90;;;;;;7367549;19;20018;-65
2023/09/13 00:33:13;;;;;;;15.32;7.70;;;19.00;99.90;;;;;;7368460;19;20644;-66
2023/09/13 00:35:40;;;;;;;13.75;7.10;;;19.10;99.90;;;;;;7366794;19;20039;-63
2023/09/13 00:38:07;;;;;;;18.73;8.60;;;19.00;99.90;;;;;;7367950;19;20078;-65
2023/09/13 00:40:33;;;;;;;14.40;8.30;;;19.00;99.90;;;;;;7365410;19;20036;-65
2023/09/13 00:43:00;;;;;;;16.08;6.40;;;19.00;99.90;;;;;;7370219;19;20019;-64
2023/09/13 00:45:30;;;;;;;17.70;7.38;;;18.90;99.90;;;;;;7367681;19;20085;-65
2023/09/13 00:47:56;;;;;;;14.27;6.75;;;18.90;99.90;;;;;;7366650;19;20947;-67
2023/09/13 00:50:22;;;;;;;16.02;6.97;;;18.90;99.90;;;;;;7370346;19;20055;-65
2023/09/13 00:52:50;;;;;;;13.98;7.55;;;18.90;99.90;;;;;;7367707;19;20508;-64
2023/09/13 00:55:17;;;;;;;18.77;7.03;;;18.90;99.90;;;;;;7369302;19;20018;-65
2023/09/13 00:57:44;;;;;;;12.88;6.47;;;18.90;99.90;;;;;;7366721;19;20518;-65
2023/09/13 01:00:11;;;;;;;12.73;6.75;;;18.90;99.90;;;;;;7367881;19;20022;-65
2023/09/13 01:02:40;;;;;;;14.10;6.63;;;18.90;99.90;;;;;;7367422;19;20022;-65
2023/09/13 01:05:11;;;;;;;15.70;8.60;;;18.90;99.90;;;;;;7370548;19;20022;-66
2023/09/13 01:07:41;;;;;;;10.10;7.07;;;18.80;99.90;;;;;;7370063;19;20025;-59
2023/09/13 01:10:09;;;;;;;14.98;7.07;;;18.80;99.90;;;;;;7367857;19;20082;-58
2023/09/13 01:12:36;;;;;;;19.10;9.65;;;18.80;99.90;;;;;;7377371;19;20018;-66
2023/09/13 01:15:07;;;;;;;14.93;7.35;;;18.80;99.90;;;;;;7375209;19;20018;-58
2023/09/13 01:18:02;;;;;;;12.65;6.55;;;18.70;99.90;;;;;;7377080;19;20482;-58
2023/09/13 01:21:19;;;;;;;12.88;7.53;;;18.70;99.90;;;;;;7376536;19;20598;-58
2023/09/13 01:24:09;;;;;;;17.00;7.15;;;18.70;99.90;;;;;;7370726;19;20481;-58
2023/09/13 01:27:06;;;;;;;14.88;7.25;;;18.60;99.90;;;;;;7360978;19;20473;-58
2023/09/13 01:29:34;;;;;;;13.93;7.53;;;18.60;99.90;;;;;;7373960;19;20022;-57
2023/09/13 01:32:01;;;;;;;18.65;7.32;;;18.60;99.90;;;;;;7373959;19;20052;-58
2023/09/13 01:34:27;;;;;;;15.70;6.72;;;18.60;99.90;;;;;;7378632;19;20022;-58
2023/09/13 01:36:56;;;;;;;15.43;6.25;;;18.60;99.90;;;;;;7369645;19;20007;-58
2023/09/13 01:39:22;;;;;;;13.82;5.47;;;18.50;99.90;;;;;;7374669;19;20493;-58
2023/09/13 01:41:58;;;;;;;13.70;5.50;;;18.50;99.90;;;;;;7367977;19;20038;-58
2023/09/13 01:44:27;;;;;;;14.80;5.25;;;18.50;99.90;;;;;;7376364;19;20143;-58
2023/09/13 01:46:55;;;;;;;12.73;4.68;;;18.50;99.90;;;;;;7374160;19;20019;-59
2023/09/13 01:49:22;;;;;;;10.98;4.68;;;18.50;99.90;;;;;;7376630;19;20018;-58
2023/09/13 01:51:49;;;;;;;11.55;5.28;;;18.50;99.90;;;;;;7366379;19;20022;-59
2023/09/13 01:54:18;;;;;;;14.00;5.85;;;18.50;99.90;;;;;;7376281;19;20025;-58
2023/09/13 01:57:05;;;;;;;11.25;5.30;;;18.40;99.90;;;;;;7371011;19;20030;-58
2023/09/13 01:59:33;;;;;;;13.50;5.22;;;18.40;99.90;;;;;;7372077;19;20373;-58
2023/09/13 02:01:59;;;;;;;12.73;4.28;;;18.40;99.90;;;;;;7367314;19;20026;-58
2023/09/13 02:04:31;;;;;;;13.73;5.15;;;18.30;99.90;;;;;;7374746;19;20018;-58
2023/09/13 02:06:57;;;;;;;10.35;4.57;;;18.30;99.90;;;;;;7372219;19;20024;-58
2023/09/13 02:09:24;;;;;;;8.60;4.50;;;18.30;99.90;;;;;;7370985;19;20031;-58
2023/09/13 02:11:50;;;;;;;16.35;5.53;;;18.30;99.90;;;;;;7369589;19;20390;-59
2023/09/13 02:14:16;;;;;;;10.98;5.15;;;18.20;99.90;;;;;;7376418;19;20466;-58
2023/09/13 02:16:42;;;;;;;9.15;4.80;;;18.20;99.90;;;;;;7370578;19;20035;-58
2023/09/13 02:19:09;;;;;;;12.13;4.65;;;18.20;99.90;;;;;;7376716;19;20022;-64
2023/09/13 02:21:35;;;;;;;9.68;4.60;;;18.20;99.90;;;;;;7369972;19;20042;-64
2023/09/13 02:24:02;;;;;;;9.98;4.60;;;18.10;99.90;;;;;;7372603;19;20018;-64
2023/09/13 02:26:28;;;;;;;10.95;4.38;;;18.00;99.90;;;;;;7373008;19;20259;-65
2023/09/13 02:28:56;;;;;;;10.02;3.95;;;18.00;99.90;;;;;;7372199;19;20022;-64
2023/09/13 02:31:27;;;;;;;10.13;4.05;;;18.00;99.90;;;;;;7368974;19;20022;-64
2023/09/13 02:33:54;;;;;;;15.93;4.68;;;17.90;99.90;;;;;;7374728;19;20018;-64
2023/09/13 02:36:22;;;;;;;9.25;3.92;;;17.90;99.90;;;;;;7370335;19;20789;-64
2023/09/13 02:38:50;;;;;;;11.35;4.13;;;17.80;99.90;;;;;;7372608;19;20055;-64
2023/09/13 02:41:16;;;;;;;10.70;4.20;;;17.80;99.90;;;;;;7372124;19;20446;-64
2023/09/13 02:43:42;;;;;;;10.10;3.90;;;17.80;99.90;;;;;;7368415;19;21047;-63
2023/09/13 02:46:08;;;;;;;12.10;4.10;;;17.80;99.90;;;;;;7375353;19;20022;-64
2023/09/13 02:48:35;;;;;;;11.73;4.88;;;17.70;99.90;;;;;;7366189;19;20065;-64
2023/09/13 02:51:02;;;;;;;10.60;3.97;;;17.70;99.90;;;;;;7368713;19;20022;-59
2023/09/13 02:53:28;;;;;;;10.32;4.22;;;17.60;99.90;;;;;;7368114;19;20513;-58
2023/09/13 02:56:05;;;;;;;13.65;4.28;;;17.70;99.90;;;;;;7367642;19;20082;-59
2023/09/13 02:58:32;;;;;;;10.13;3.33;;;17.60;99.90;;;;;;7363906;19;20022;-59
2023/09/13 03:01:03;;;;;;;13.73;4.30;;;17.60;99.90;;;;;;7365809;19;20014;-65
2023/09/13 03:03:32;;;;;;;9.45;3.67;;;17.60;99.90;;;;;;7362603;19;20022;-64
2023/09/13 03:06:18;;;;;;;10.77;3.78;;;17.50;99.90;;;;;;7367387;19;20035;-59
2023/09/13 03:08:45;;;;;;;11.50;3.80;;;17.50;99.90;;;;;;7369403;19;20022;-59
2023/09/13 03:11:18;;;;;;;9.30;3.40;;;17.50;99.90;;;;;;7368193;19;20029;-59
2023/09/13 03:13:45;;;;;;;12.88;4.07;;;17.50;99.90;;;;;;7368254;19;20022;-60
2023/09/13 03:16:17;;;;;;;8.57;4.28;;;17.50;99.90;;;;;;7364283;19;20014;-59
2023/09/13 03:18:45;;;;;;;9.93;3.38;;;17.50;99.90;;;;;;7366069;19;20043;-64
2023/09/13 03:21:13;;;;;;;8.65;2.97;;;17.50;99.90;;;;;;7362769;19;20619;-65
2023/09/13 03:23:45;;;;;;;9.85;3.47;;;17.50;99.90;;;;;;7366247;19;20014;-64
2023/09/13 03:26:18;;;;;;;9.07;3.53;;;17.50;99.90;;;;;;7365342;19;20050;-64
2023/09/13 03:28:46;;;;;;;10.00;3.53;;;17.50;99.90;;;;;;7365659;19;20014;-65
2023/09/13 03:31:14;;;;;;;12.15;3.80;;;17.50;99.90;;;;;;7362511;19;20015;-63
2023/09/13 03:33:43;;;;;;;8.10;3.28;;;17.50;99.90;;;;;;7366229;19;20466;-65
2023/09/13 03:36:10;;;;;;;10.85;3.75;;;17.50;99.90;;;;;;7364154;19;20025;-64
2023/09/13 03:38:39;;;;;;;8.57;3.47;;;17.50;99.90;;;;;;7370129;19;20025;-63
2023/09/13 03:41:27;;;;;;;7.90;3.30;;;17.40;99.90;;;;;;7368797;19;20504;-64
2023/09/13 03:44:14;;;;;;;10.02;3.30;;;17.40;99.90;;;;;;7369180;19;20078;-65
2023/09/13 03:46:40;;;;;;;11.32;3.33;;;17.30;99.90;;;;;;7367053;19;20025;-65
2023/09/13 03:49:06;;;;;;;9.85;3.20;;;17.30;99.90;;;;;;7368164;19;20085;-65
2023/09/13 03:51:32;;;;;;;9.18;3.47;;;17.30;99.90;;;;;;7367038;19;20039;-65
2023/09/13 03:53:59;;;;;;;9.07;3.13;;;17.20;99.90;;;;;;7369648;19;20041;-65
2023/09/13 03:56:25;;;;;;;11.13;3.70;;;17.20;99.90;;;;;;7364534;19;20014;-65
2023/09/13 03:58:52;;;;;;;12.18;3.40;;;17.10;99.90;;;;;;7366306;19;20018;-66
2023/09/13 04:01:19;;;;;;;12.23;3.85;;;16.90;99.90;;;;;;7365810;19;20393;-66
2023/09/13 04:03:45;;;;;;;7.55;3.13;;;16.90;99.90;;;;;;7370253;19;20497;-66
2023/09/13 04:06:12;;;;;;;10.82;3.88;;;16.90;99.90;;;;;;7368718;19;20028;-59
2023/09/13 04:08:38;;;;;;;11.15;4.03;;;16.90;99.90;;;;;;7368126;19;20030;-58
2023/09/13 04:11:05;;;;;;;8.45;3.22;;;16.90;99.90;;;;;;7367239;19;20026;-58
2023/09/13 04:13:31;;;;;;;11.50;3.72;;;16.90;99.90;;;;;;7365346;19;20039;-59
2023/09/13 04:16:06;;;;;;;8.73;3.67;;;16.90;99.90;;;;;;7369632;19;20640;-64
2023/09/13 04:18:33;;;;;;;10.07;4.30;;;16.80;99.90;;;;;;7365339;19;20022;-59
2023/09/13 04:20:59;;;;;;;10.60;4.30;;;16.80;99.90;;;;;;7370589;19;20049;-58
2023/09/13 04:23:26;;;;;;;10.98;3.88;;;16.80;99.90;;;;;;7368591;19;20034;-58
2023/09/13 04:25:52;;;;;;;9.18;3.90;;;16.80;99.90;;;;;;7365972;19;20335;-58
2023/09/13 04:28:18;;;;;;;11.80;3.85;;;16.80;99.90;;;;;;7366745;19;20501;-58
2023/09/13 04:30:45;;;;;;;12.38;4.53;;;16.80;99.90;;;;;;7364900;19;20018;-65
2023/09/13 04:33:11;;;;;;;10.23;3.88;;;16.80;99.90;;;;;;7368459;19;20082;-64
2023/09/13 04:35:37;;;;;;;10.63;3.60;;;16.80;99.90;;;;;;7366410;19;20022;-58
2023/09/13 04:38:04;;;;;;;9.02;2.92;;;16.80;99.90;;;;;;7367467;19;20022;-65
2023/09/13 04:40:31;;;;;;;8.95;4.00;;;16.90;99.90;;;;;;7370450;19;20034;-65
2023/09/13 04:43:08;;;;;;;9.00;4.35;;;16.90;99.90;;;;;;7368513;19;20432;-65
2023/09/13 04:45:36;;;;;;;9.05;3.83;;;16.80;99.90;;;;;;7369011;19;20056;-65
2023/09/13 04:48:23;;;;;;;6.82;3.80;;;16.80;99.90;;;;;;7370519;19;20042;-65
2023/09/13 04:50:49;;;;;;;10.75;3.45;;;16.80;99.90;;;;;;7370924;19;20462;-65
2023/09/13 04:53:16;;;;;;;10.18;4.50;;;16.80;99.90;;;;;;7368637;19;20477;-65
2023/09/13 04:55:44;;;;;;;10.30;4.57;;;16.80;99.90;;;;;;7370496;19;20085;-66
2023/09/13 04:58:11;;;;;;;14.38;3.97;;;16.80;99.90;;;;;;7370649;19;20019;-65
2023/09/13 05:00:38;;;;;;;11.43;3.78;;;16.80;99.90;;;;;;7370537;19;20484;-65
2023/09/13 05:03:04;;;;;;;11.50;3.30;;;16.80;99.90;;;;;;7369837;19;20022;-64
2023/09/13 05:05:50;;;;;;;9.32;4.35;;;16.80;99.90;;;;;;7368216;19;20011;-65
2023/09/13 05:08:17;;;;;;;12.88;4.70;;;16.80;99.90;;;;;;7366062;19;20505;-65
2023/09/13 05:10:44;;;;;;;10.85;4.20;;;16.80;99.90;;;;;;7365970;19;20528;-65
2023/09/13 05:13:12;;;;;;;11.00;3.80;;;16.80;99.90;;;;;;7369689;19;20362;-65
2023/09/13 05:15:44;;;;;;;13.30;3.88;;;16.80;99.90;;;;;;7368554;19;20033;-65
2023/09/13 05:18:11;;;;;;;12.60;4.75;;;16.80;99.90;;;;;;7368640;19;20486;-66
2023/09/13 05:20:58;;;;;;;9.75;4.40;;;16.70;99.90;;;;;;7365761;19;20014;-58
2023/09/13 05:23:24;;;;;;;13.98;4.18;;;16.70;99.90;;;;;;7366959;19;20033;-58
2023/09/13 05:25:50;;;;;;;10.15;3.55;;;16.70;99.90;;;;;;7365394;19;20014;-58
2023/09/13 05:28:36;;;;;;;10.40;2.90;;;16.50;99.90;;;;;;7371470;19;20010;-65
2023/09/13 05:31:03;;;;;;;12.23;3.20;;;16.30;99.90;;;;;;7383586;19;20344;-64
2023/09/13 05:33:30;;;;;;;14.23;3.75;;;16.10;99.90;;;;;;7385348;19;20019;-63
2023/09/13 05:35:56;;;;;;;10.65;3.08;;;16.00;99.90;;;;;;7386790;19;20022;-64
2023/09/13 05:38:22;;;;;;;12.88;3.03;;;16.00;99.90;;;;;;7367800;19;20027;-58
2023/09/13 05:40:48;;;;;;;12.48;3.28;;;15.80;99.90;;;;;;7362374;19;20022;-59
2023/09/13 05:43:15;;;;;;;9.90;2.90;;;15.80;99.90;;;;;;7356561;19;20114;-59
2023/09/13 05:45:42;;;;;;;10.80;4.55;;;15.70;99.90;;;;;;7360925;19;20078;-61
2023/09/13 05:48:08;;;;;;;11.77;3.33;;;16.00;99.90;;;;;;7362481;19;20022;-60
2023/09/13 05:50:34;;;;;;;12.75;4.10;;;15.70;99.90;;;;;;7366103;19;20600;-60
2023/09/13 05:53:00;;;;;;;12.77;3.65;;;15.70;99.90;;;;;;7359572;19;21556;-61
2023/09/13 05:55:27;;;;;;;12.95;3.83;;;15.60;99.90;;;;;;7366758;19;20451;-59
2023/09/13 05:57:53;;;;;;;10.82;2.85;;;15.50;99.90;;;;;;7365000;19;20025;-60
2023/09/13 06:00:45;;;;;;;12.27;3.90;;;15.40;99.90;;;;;;7367674;19;20029;-65
2023/09/13 06:03:12;;;;;;;9.75;5.25;;;15.40;99.90;;;;;;7373449;19;20351;-64
2023/09/13 06:05:38;;;;;;;9.80;3.45;;;15.30;99.90;;;;;;7373548;19;20101;-64
2023/09/13 06:08:05;;;;;;;10.90;6.20;;;15.20;99.90;;;;;;7371293;19;20053;-64
2023/09/13 06:10:31;;;;;;;9.43;5.07;;;15.10;99.90;;;;;;7375793;19;20436;-64
2023/09/13 06:12:57;;;;;;;11.75;3.42;;;15.10;99.90;;;;;;7370799;19;20187;-61
2023/09/13 06:15:24;;;;;;;9.18;3.22;;;15.10;99.90;;;;;;7373283;19;20476;-62
2023/09/13 06:17:54;;;;;;;4.97;1.77;;;15.00;99.90;;;;;;7371071;19;20030;-63
2023/09/13 06:20:21;;;;;;;10.40;4.28;;;14.90;99.90;;;;;;7370665;19;20382;-63
2023/09/13 06:22:48;;;;;;;7.88;2.40;;;14.80;99.90;;;;;;7372130;19;20022;-63
2023/09/13 06:25:17;;;;;;;7.63;2.20;;;14.80;99.90;;;;;;7371949;19;20014;-63
2023/09/13 06:27:44;;;;;;;17.42;3.22;;;14.70;99.90;;;;;;7371549;19;20042;-62
2023/09/13 06:30:10;;;;;;;10.02;2.47;;;14.70;99.90;;;;;;7372875;19;20014;-63
2023/09/13 06:32:36;;;;;;;8.68;2.47;;;14.50;99.90;;;;;;7371019;19;20494;-63
2023/09/13 06:35:03;;;;;;;9.75;2.97;;;14.50;99.90;;;;;;7369527;19;20019;-59
2023/09/13 06:37:30;;;;;;;9.85;2.35;;;14.50;99.90;;;;;;7374009;19;20026;-60
2023/09/13 06:39:56;;;;;;;8.77;3.72;;;14.50;99.90;;;;;;7370733;19;20015;-60
2023/09/13 06:42:22;;;;;;;5.95;2.72;;;14.50;99.90;;;;;;7369783;19;20018;-60
2023/09/13 06:44:49;;;;;;;8.75;2.55;;;14.50;99.90;;;;;;7367688;19;20049;-62
2023/09/13 06:47:15;;;;;;;13.18;3.08;;;14.50;99.90;;;;;;7373426;19;20439;-60
2023/09/13 06:49:41;;;;;;;4.57;2.17;;;14.50;99.90;;;;;;7370824;19;20689;-61
2023/09/13 06:52:08;;;;;;;10.23;2.42;;;14.50;99.90;;;;;;7372562;19;20588;-61
2023/09/13 06:54:34;;;;;;;6.30;2.13;;;14.60;99.90;;;;;;7363669;19;20055;-60
2023/09/13 06:57:00;;;;;;;8.07;2.90;;;14.60;99.90;;;;;;7371527;19;20033;-60
2023/09/13 06:59:46;;;;;;;6.18;2.25;;;14.60;99.90;;;;;;7369113;19;20405;-61
2023/09/13 07:02:12;;;;;;;11.23;7.15;;;14.70;99.90;;;;;;7369916;19;20014;-62
2023/09/13 07:05:00;;;;;;;9.48;3.20;;;14.70;99.90;;;;;;7373047;19;20476;-61
2023/09/13 07:07:33;;;;;;;9.82;4.47;;;14.70;99.90;;;;;;7369231;19;20414;-61
2023/09/13 07:10:03;;;;;;;6.60;3.40;;;14.80;99.90;;;;;;7365250;19;20019;-61
2023/09/13 07:12:29;;;;;;;12.68;7.25;;;14.80;99.90;;;;;;7372619;19;20469;-61
2023/09/13 07:14:56;;;;;;;8.25;4.20;;;14.80;99.90;;;;;;7355196;19;20408;-61
2023/09/13 07:17:42;;;;;;;13.55;4.97;;;14.80;99.90;;;;;;7368606;19;20021;-61
2023/09/13 07:20:10;;;;;;;14.70;4.95;;;14.90;99.90;;;;;;7371453;19;20473;-61
2023/09/13 07:22:57;;;;;;;10.50;3.83;;;14.90;99.90;;;;;;7368847;19;20042;-62
2023/09/13 07:25:23;;;;;;;12.02;3.25;;;15.00;99.90;;;;;;7370849;19;20018;-61
2023/09/13 07:28:00;;;;;;;9.90;4.07;;;15.00;99.90;;;;;;7368510;19;20501;-61
2023/09/13 07:30:26;;;;;;;12.68;4.22;;;15.10;99.90;;;;;;7370779;19;20086;-61
2023/09/13 07:32:54;;;;;;;15.18;4.60;;;15.10;99.90;;;;;;7368261;19;20726;-61
2023/09/13 07:35:20;;;;;;;15.00;5.38;;;15.10;99.90;;;;;;7368748;19;20746;-58
2023/09/13 07:37:47;;;;;;;9.27;3.38;;;15.10;99.90;;;;;;7365005;19;20525;-60
2023/09/13 07:40:14;;;;;;;10.90;3.88;;;15.20;99.90;;;;;;7365768;19;20023;-59
2023/09/13 07:42:40;;;;;;;11.95;3.67;;;15.30;99.90;;;;;;7368231;19;20504;-59
2023/09/13 07:45:08;;;;;;;14.10;4.25;;;15.30;99.90;;;;;;7368008;19;20369;-60
2023/09/13 07:47:34;;;;;;;10.40;4.88;;;15.40;99.90;;;;;;7370275;19;20018;-62
2023/09/13 07:50:00;;;;;;;14.55;6.22;;;15.50;99.90;;;;;;7363301;19;20014;-62
2023/09/13 07:52:27;;;;;;;11.13;4.35;;;15.80;99.90;;;;;;7360573;19;20022;-59
2023/09/13 07:54:53;;;;;;;11.18;3.65;;;15.70;99.90;;;;;;7364784;19;20474;-59
2023/09/13 07:57:19;;;;;;;14.07;4.60;;;15.70;99.90;;;;;;7366280;19;20059;-60
2023/09/13 07:59:45;;;;;;;11.50;3.25;;;15.70;99.90;;;;;;7362723;19;20019;-60
2023/09/13 08:02:12;;;;;;;14.77;3.90;;;15.70;99.90;;;;;;7352196;19;20041;-60
2023/09/13 08:04:58;;;;;;;13.00;4.75;;;15.80;99.90;;;;;;7363901;19;20101;-61
2023/09/13 08:07:24;;;;;;;14.75;4.20;;;15.80;99.90;;;;;;7365850;19;20018;-60
2023/09/13 08:09:50;;;;;;;11.23;3.60;;;15.90;99.90;;;;;;7368974;19;20383;-63
2023/09/13 08:12:17;;;;;;;12.50;3.58;;;15.80;99.90;;;;;;7365776;19;20029;-61
2023/09/13 08:14:43;;;;;;;14.30;3.75;;;15.80;99.90;;;;;;7369768;19;20022;-62
2023/09/13 08:17:09;;;;;;;13.00;3.88;;;15.80;99.90;;;;;;7368898;19;20015;-61
2023/09/13 08:19:36;;;;;;;10.60;3.80;;;15.90;99.90;;;;;;7369812;19;20036;-64
2023/09/13 08:22:22;;;;;;;10.98;4.18;;;15.90;99.90;;;;;;7368372;19;20389;-64
2023/09/13 08:24:49;;;;;;;15.70;5.82;;;16.00;99.90;;;;;;7371516;19;20039;-59
2023/09/13 08:27:16;;;;;;;11.60;5.65;;;16.10;99.90;;;;;;7365306;19;20366;-59
2023/09/13 08:29:42;;;;;;;12.98;3.95;;;16.10;99.90;;;;;;7369252;19;20025;-65
2023/09/13 08:32:08;;;;;;;9.52;3.42;;;16.30;99.90;;;;;;7371777;19;20023;-65
2023/09/13 08:34:37;;;;;;;11.60;3.88;;;16.40;99.90;;;;;;7359627;19;20015;-67
2023/09/13 08:37:04;;;;;;;11.90;3.47;;;16.40;99.90;;;;;;7369971;19;20028;-65
2023/09/13 08:39:30;;;;;;;16.92;4.32;;;16.50;99.90;;;;;;7374083;19;20742;-64
2023/09/13 08:41:58;;;;;;;12.25;3.70;;;16.50;99.90;;;;;;7356374;19;20014;-59
2023/09/13 08:44:26;;;;;;;16.30;3.65;;;16.50;99.90;;;;;;7357760;19;20055;-59
2023/09/13 08:46:57;;;;;;;10.40;3.17;;;16.70;99.90;;;;;;7351047;19;20014;-59
2023/09/13 08:49:24;;;;;;;12.60;3.83;;;16.90;99.90;;;;;;7355556;19;20023;-59
2023/09/13 08:51:52;;;;;;;8.73;3.47;;;16.80;99.90;;;;;;7351165;19;20449;-66
2023/09/13 08:54:19;;;;;;;11.27;4.47;;;16.80;99.90;;;;;;7352400;19;20017;-67
2023/09/13 08:56:48;;;;;;;9.00;3.35;;;16.90;99.90;;;;;;7354177;19;20033;-66
2023/09/13 08:59:15;;;;;;;14.32;4.82;;;17.00;99.90;;;;;;7356136;19;20026;-66
2023/09/13 09:01:48;;;;;;;14.18;4.57;;;17.00;99.90;;;;;;7364542;19;20022;-66
2023/09/13 09:04:16;;;;;;;7.63;3.40;;;17.10;99.90;;;;;;7363861;19;20019;-67
2023/09/13 09:06:44;;;;;;;12.70;3.45;;;17.10;99.90;;;;;;7368525;19;20029;-66
2023/09/13 09:09:12;;;;;;;8.27;2.78;;;17.20;99.90;;;;;;7374518;19;20470;-66
2023/09/13 09:11:43;;;;;;;10.35;3.65;;;17.30;99.90;;;;;;7374065;19;20057;-61
2023/09/13 09:14:31;;;;;;;10.80;3.20;;;17.30;99.90;;;;;;7374284;19;20014;-66
2023/09/13 09:17:00;;;;;;;8.32;3.75;;;17.60;99.90;;;;;;7387513;19;20776;-62
2023/09/13 09:19:26;;;;;;;8.23;2.42;;;17.80;99.90;;;;;;7369449;19;20014;-65
2023/09/13 09:21:53;;;;;;;5.95;2.20;;;18.00;99.90;;;;;;7378195;19;20022;-59
2023/09/13 09:24:19;;;;;;;10.90;2.53;;;18.20;99.90;;;;;;7361164;19;20026;-59
2023/09/13 09:26:46;;;;;;;9.25;4.80;;;18.40;99.90;;;;;;7378689;19;20505;-64
2023/09/13 09:29:18;;;;;;;8.05;3.28;;;18.50;99.90;;;;;;7389632;19;20025;-65
2023/09/13 09:31:44;;;;;;;11.90;5.00;;;18.40;99.90;;;;;;7389161;19;20019;-66
2023/09/13 09:34:12;;;;;;;9.77;3.53;;;18.30;99.90;;;;;;7397290;19;20469;-65
2023/09/13 09:36:44;;;;;;;7.63;4.72;;;18.30;99.90;;;;;;7396244;19;20024;-66
2023/09/13 09:39:36;;;;;;;11.38;3.95;;;18.20;99.90;;;;;;7394853;19;20477;-66
2023/09/13 09:42:03;;;;;;;8.52;2.85;;;18.00;99.90;;;;;;7394602;19;20526;-66
2023/09/13 09:44:30;;;;;;;9.40;3.88;;;18.10;99.90;;;;;;7395353;19;20677;-65
2023/09/13 09:46:59;;;;;;;8.27;3.47;;;18.10;99.90;;;;;;7398741;19;20013;-65
2023/09/13 09:49:25;;;;;;;7.35;3.10;;;18.30;99.90;;;;;;7395867;19;20530;-65
2023/09/13 09:51:53;;;;;;;7.70;2.70;;;18.70;99.90;;;;;;7394952;19;20010;-65
2023/09/13 09:54:20;;;;;;;11.40;3.88;;;18.70;99.90;;;;;;7382010;19;20121;-62
2023/09/13 09:56:46;;;;;;;13.35;7.75;;;18.50;99.90;;;;;;7383869;19;20022;-66
2023/09/13 09:59:12;;;;;;;5.97;2.10;;;18.30;99.90;;;;;;7386250;19;20030;-65
2023/09/13 10:01:42;;;;;;;6.47;2.03;;;18.20;99.90;;;;;;7383074;19;21493;-65
2023/09/13 10:04:28;;;;;;;8.60;2.00;;;18.20;99.90;;;;;;7386490;19;20025;-66
2023/09/13 10:07:03;;;;;;;9.23;2.47;;;18.00;99.90;;;;;;7387508;19;20038;-66
2023/09/13 10:09:40;;;;;;;8.02;2.40;;;17.90;99.90;;;;;;7392018;19;20046;-65
2023/09/13 10:12:09;;;;;;;8.23;2.28;;;17.70;99.90;;;;;;7382670;19;20025;-59
2023/09/13 10:14:37;;;;;;;10.32;3.55;;;17.70;99.90;;;;;;7381577;19;20022;-59
2023/09/13 10:17:05;;;;;;;7.90;2.63;;;18.30;99.90;;;;;;7384526;19;20022;-59
2023/09/13 10:19:32;;;;;;;10.93;3.30;;;18.60;99.90;;;;;;7384546;19;20466;-66
2023/09/13 10:22:01;;;;;;;7.50;2.47;;;19.00;99.90;;;;;;7390697;19;20021;-65
2023/09/13 10:24:53;;;;;;;12.18;4.28;;;19.30;99.90;;;;;;7383803;19;20074;-66
2023/09/13 10:27:20;;;;;;;;;;;19.00;99.90;;;;;;7387471;19;20030;-66
2023/09/13 10:29:59;;;;;;;10.98;4.22;;;18.80;99.90;;;;;;7388615;19;19930;-65
2023/09/13 10:32:36;;;;;;;6.55;3.38;;;18.40;99.90;;;;;;7385525;19;20568;-66
2023/09/13 10:35:03;;;;;;;8.82;4.32;;;17.90;99.90;;;;;;7382680;19;20019;-66
2023/09/13 10:37:43;;;;;;;10.07;5.22;;;17.70;99.90;;;;;;7390354;19;20026;-65
2023/09/13 10:40:20;;;;;;;8.45;3.72;;;17.50;99.90;;;;;;7391509;19;20018;-66
2023/09/13 10:42:48;;;;;;;6.00;2.22;;;17.60;99.90;;;;;;7383284;19;20022;-62
2023/09/13 10:45:18;;;;;;;8.77;3.72;;;17.50;99.90;;;;;;7376453;19;20760;-65
2023/09/13 10:47:47;;;;;;;8.18;4.25;;;17.50;99.90;;;;;;7389759;19;20498;-66
2023/09/13 10:50:16;;;;;;;7.32;3.67;;;17.50;99.90;;;;;;7388403;19;20029;-65
2023/09/13 10:52:44;;;;;;;9.38;2.80;;;17.70;99.90;;;;;;7384603;19;20108;-68
2023/09/13 10:55:13;;;;;;;7.00;2.55;;;17.90;99.90;;;;;;7380509;19;20022;-66
2023/09/13 10:57:44;;;;;;;13.95;6.43;;;18.20;99.90;;;;;;7372937;19;20037;-67
2023/09/13 11:00:12;;;;;;;92.82;84.13;;;18.60;99.90;;;;;;7384617;19;20446;-66
2023/09/13 11:02:40;;;;;;;7.07;3.38;;;19.10;99.90;;;;;;7384248;19;20038;-67
2023/09/13 11:05:07;;;;;;;6.20;2.67;;;19.40;99.90;;;;;;7378384;19;20042;-66
2023/09/13 11:07:43;;;;;;;7.80;2.75;;;19.90;99.90;;;;;;7382019;19;20027;-68
2023/09/13 11:10:17;;;;;;;8.80;2.40;;;20.20;99.90;;;;;;7382119;19;20019;-70
2023/09/13 11:12:48;;;;;;;7.50;3.22;;;20.40;99.90;;;;;;7379258;19;20473;-68
2023/09/13 11:15:20;;;;;;;10.70;4.93;;;20.80;99.90;;;;;;7384289;19;20019;-69
2023/09/13 11:17:46;;;;;;;9.00;6.22;;;21.10;99.90;;;;;;7384904;19;20163;-70
2023/09/13 11:20:23;;;;;;;9.98;5.07;;;21.30;99.90;;;;;;7382711;19;20632;-70
2023/09/13 11:23:10;;;;;;;8.25;3.17;;;21.70;99.90;;;;;;7385726;19;20066;-70
2023/09/13 11:26:02;;;;;;;7.30;2.83;;;22.10;99.90;;;;;;7379009;19;20010;-70
2023/09/13 11:28:50;;;;;;;6.05;2.40;;;22.40;99.90;;;;;;7370690;19;20038;-60
2023/09/13 11:31:21;;;;;;;12.65;7.65;;;22.40;99.90;;;;;;7372401;19;20608;-60
2023/09/13 11:33:51;;;;;;;9.82;5.45;;;22.50;99.90;;;;;;7375811;19;20029;-61
2023/09/13 11:36:18;;;;;;;8.65;4.38;;;22.70;99.90;;;;;;7371351;19;20046;-60
2023/09/13 11:38:44;;;;;;;6.57;2.63;;;22.90;99.90;;;;;;7373714;19;20692;-61
2023/09/13 11:41:17;;;;;;;8.75;2.92;;;23.30;99.90;;;;;;7366550;19;20050;-61
2023/09/13 11:43:43;;;;;;;11.02;6.30;;;23.30;99.90;;;;;;7375543;19;20094;-61
2023/09/13 11:46:30;;;;;;;5.85;2.40;;;24.40;99.90;;;;;;7375648;19;20022;-61
2023/09/13 11:49:01;;;;;;;7.47;3.50;;;24.90;99.90;;;;;;7374937;19;20014;-59
2023/09/13 11:51:31;;;;;;;22.52;20.23;;;25.50;99.90;;;;;;7378734;19;20015;-60
2023/09/13 11:54:13;;;;;;;5.83;3.30;;;25.80;99.40;;;;;;7372341;19;20052;-62
2023/09/13 11:57:03;;;;;;;10.15;7.18;;;26.80;93.80;;;;;;7373753;19;20053;-64
2023/09/13 11:59:31;;;;;;;12.27;6.18;;;26.90;95.20;;;;;;7369825;19;20030;-62
2023/09/13 12:01:57;;;;;;;16.30;13.07;;;26.20;95.20;;;;;;7371295;19;20007;-61
2023/09/13 12:04:44;;;;;;;5.90;3.60;;;25.90;94.10;;;;;;7368895;19;20597;-63
2023/09/13 12:07:10;;;;;;;7.22;4.00;;;25.50;94.50;;;;;;7373212;19;20146;-69
2023/09/13 12:09:37;;;;;;;4.70;2.40;;;25.30;94.00;;;;;;7373430;19;20374;-62
2023/09/13 12:12:04;;;;;;;6.28;3.05;;;25.10;94.20;;;;;;7373960;19;20025;-66
2023/09/13 12:14:31;;;;;;;10.48;8.40;;;24.80;94.20;;;;;;7374153;19;20577;-65
2023/09/13 12:16:58;;;;;;;7.22;2.03;;;24.60;94.10;;;;;;7370339;19;20022;-64
2023/09/13 12:19:30;;;;;;;6.32;2.10;;;24.40;94.40;;;;;;7369693;19;20018;-62
2023/09/13 12:21:56;;;;;;;7.55;2.28;;;24.30;94.60;;;;;;7371168;19;20022;-63
2023/09/13 12:24:27;;;;;;;6.57;2.67;;;24.50;95.20;;;;;;7370709;19;20022;-65
2023/09/13 12:26:53;;;;;;;7.50;3.13;;;24.50;94.00;;;;;;7373091;19;20451;-64
2023/09/13 12:29:22;;;;;;;9.35;3.53;;;24.30;94.50;;;;;;7367462;19;20454;-64
2023/09/13 12:32:10;;;;;;;85.85;78.13;;;24.00;94.30;;;;;;7370038;19;20026;-65
2023/09/13 12:34:36;;;;;;;29.17;23.75;;;23.70;95.20;;;;;;7366865;19;20023;-66
2023/09/13 12:37:03;;;;;;;8.82;5.53;;;23.30;95.80;;;;;;7366883;19;20018;-65
2023/09/13 12:39:30;;;;;;;3.63;1.98;;;23.00;96.50;;;;;;7367278;19;20025;-66
2023/09/13 12:42:18;;;;;;;6.32;2.92;;;23.10;97.90;;;;;;7364130;19;20014;-67
2023/09/13 12:44:46;;;;;;;5.13;2.47;;;23.50;98.60;;;;;;7364058;19;22012;-66
2023/09/13 12:47:16;;;;;;;6.97;4.07;;;23.40;97.40;;;;;;7370278;19;20377;-65
2023/09/13 12:49:43;;;;;;;;;;;23.60;95.80;;;;;;7364355;19;20036;-66
2023/09/13 12:52:10;;;;;;;4.78;1.92;;;24.10;94.30;;;;;;7359465;19;20645;-65
2023/09/13 12:54:36;;;;;;;6.53;2.30;;;25.20;94.60;;;;;;7360119;19;20024;-67